createdAt,value
2022-08-17T00:00:50.381Z,1.92
2022-08-17T00:03:23.139Z,2.28
2022-08-17T00:05:52.752Z,1.85
2022-08-17T00:08:26.906Z,1.70
2022-08-17T00:10:55.535Z,1.80
2022-08-17T00:13:32.823Z,1.92
2022-08-17T00:16:04.300Z,1.52
2022-08-17T00:19:06.566Z,1.52
2022-08-17T00:21:23.997Z,1.70
2022-08-17T00:23:54.195Z,1.80
2022-08-17T00:26:43.701Z,1.65
2022-08-17T00:29:10.200Z,1.77
2022-08-17T00:33:10.956Z,1.52
2022-08-17T00:34:53.508Z,1.70
2022-08-17T00:37:20.945Z,1.45
2022-08-17T00:39:48.517Z,1.65
2022-08-17T00:42:18.425Z,1.70
2022-08-17T00:44:46.360Z,1.60
2022-08-17T00:47:14.413Z,1.55
2022-08-17T00:49:42.001Z,1.50
2022-08-17T00:52:16.813Z,1.52
2022-08-17T00:54:47.367Z,1.40
2022-08-17T00:57:26.637Z,1.50
2022-08-17T01:00:02.792Z,1.40
2022-08-17T01:02:42.438Z,1.50
2022-08-17T01:05:15.366Z,1.50
2022-08-17T01:07:43.668Z,1.52
2022-08-17T01:10:58.954Z,1.65
2022-08-17T01:13:05.065Z,1.80
2022-08-17T01:15:36.686Z,1.73
2022-08-17T01:18:08.101Z,1.85
2022-08-17T01:20:47.951Z,1.42
2022-08-17T01:23:20.753Z,1.50
2022-08-17T01:25:51.866Z,1.80
2022-08-17T01:28:52.404Z,1.40
2022-08-17T01:31:09.734Z,1.80
2022-08-17T01:33:37.403Z,1.63
2022-08-17T01:36:07.708Z,1.52
2022-08-17T01:38:36.725Z,1.85
2022-08-17T01:41:11.549Z,1.80
2022-08-17T01:43:47.884Z,2.00
2022-08-17T01:46:21.358Z,2.05
2022-08-17T01:48:49.197Z,1.92
2022-08-17T01:51:16.846Z,2.13
2022-08-17T01:53:50.836Z,2.38
2022-08-17T01:56:21.876Z,2.25
2022-08-17T01:58:50.328Z,2.63
2022-08-17T02:01:20.520Z,2.65
2022-08-17T02:03:56.182Z,2.70
2022-08-17T02:06:45.313Z,2.63
2022-08-17T02:09:20.154Z,3.08
2022-08-17T02:11:51.698Z,4.28
2022-08-17T02:14:19.132Z,4.80
2022-08-17T02:16:46.590Z,5.45
2022-08-17T02:19:16.221Z,3.38
2022-08-17T02:21:46.546Z,3.08
2022-08-17T02:24:18.101Z,2.55
2022-08-17T02:27:06.150Z,2.45
2022-08-17T02:29:33.598Z,2.92
2022-08-17T02:32:02.080Z,2.58
2022-08-17T02:34:30.265Z,2.30
2022-08-17T02:36:57.818Z,2.38
2022-08-17T02:39:25.218Z,2.30
2022-08-17T02:42:01.967Z,2.05
2022-08-17T02:44:39.792Z,2.05
2022-08-17T02:47:09.882Z,1.95
2022-08-17T02:49:38.200Z,2.08
2022-08-17T02:52:07.699Z,2.10
2022-08-17T02:54:41.405Z,1.85
2022-08-17T02:57:12.495Z,2.10
2022-08-17T02:59:46.733Z,2.10
2022-08-17T03:02:16.493Z,1.73
2022-08-17T03:04:43.956Z,1.77
2022-08-17T03:07:12.177Z,1.80
2022-08-17T03:09:39.589Z,2.05
2022-08-17T03:12:13.210Z,1.80
2022-08-17T03:14:42.983Z,1.90
2022-08-17T03:17:13.851Z,1.98
2022-08-17T03:19:45.225Z,1.92
2022-08-17T03:22:36.827Z,1.90
2022-08-17T03:25:00.321Z,1.92
2022-08-17T03:27:28.248Z,1.80
2022-08-17T03:29:55.749Z,1.80
2022-08-17T03:32:23.137Z,1.80
2022-08-17T03:34:50.637Z,1.85
2022-08-17T03:37:18.067Z,1.90
2022-08-17T03:39:45.547Z,1.80
2022-08-17T03:42:31.307Z,2.05
2022-08-17T03:45:01.997Z,1.85
2022-08-17T03:47:49.693Z,1.80
2022-08-17T03:50:37.037Z,1.75
2022-08-17T03:53:27.458Z,1.90
2022-08-17T03:56:13.791Z,1.88
2022-08-17T03:58:41.206Z,1.60
2022-08-17T04:01:09.742Z,1.70
2022-08-17T04:03:37.439Z,1.90
2022-08-17T04:06:05.797Z,1.70
2022-08-17T04:08:33.514Z,1.50
2022-08-17T04:11:01.493Z,2.10
2022-08-17T04:13:28.872Z,2.53
2022-08-17T04:15:57.567Z,2.80
2022-08-17T04:18:26.248Z,1.80
2022-08-17T04:20:53.690Z,1.70
2022-08-17T04:23:21.262Z,1.77
2022-08-17T04:25:51.521Z,1.67
2022-08-17T04:28:20.188Z,1.70
2022-08-17T04:30:48.503Z,1.75
2022-08-17T04:33:27.566Z,1.60
2022-08-17T04:35:59.315Z,1.60
2022-08-17T04:38:32.633Z,1.50
2022-08-17T04:41:19.329Z,1.50
2022-08-17T04:43:49.592Z,1.80
2022-08-17T04:46:20.386Z,1.63
2022-08-17T04:48:52.934Z,1.55
2022-08-17T04:51:27.476Z,1.30
2022-08-17T04:53:58.082Z,1.45
2022-08-17T04:56:27.621Z,1.27
2022-08-17T04:58:58.766Z,1.52
2022-08-17T05:01:30.263Z,1.38
2022-08-17T05:04:00.684Z,1.50
2022-08-17T05:06:49.791Z,1.30
2022-08-17T05:09:17.943Z,1.60
2022-08-17T05:11:46.211Z,1.27
2022-08-17T05:14:14.426Z,1.40
2022-08-17T05:16:41.894Z,0.95
2022-08-17T05:19:09.395Z,1.05
2022-08-17T05:21:36.740Z,1.08
2022-08-17T05:24:07.142Z,1.20
2022-08-17T05:26:51.925Z,1.20
2022-08-17T05:29:19.736Z,1.13
2022-08-17T05:31:47.232Z,1.33
2022-08-17T05:34:14.895Z,1.17
2022-08-17T05:36:44.485Z,1.23
2022-08-17T05:39:17.020Z,1.30
2022-08-17T05:41:47.328Z,1.02
2022-08-17T05:44:15.358Z,1.10
2022-08-17T05:46:48.147Z,1.10
2022-08-17T05:49:18.227Z,1.20
2022-08-17T05:51:58.492Z,0.93
2022-08-17T05:54:43.902Z,0.98
2022-08-17T05:57:42.370Z,1.20
2022-08-17T06:00:52.493Z,1.20
2022-08-17T06:03:48.371Z,1.15
2022-08-17T06:06:25.331Z,1.30
2022-08-17T06:09:09.895Z,1.45
2022-08-17T06:12:03.822Z,1.33
2022-08-17T06:14:35.952Z,1.55
2022-08-17T06:17:08.594Z,1.40
2022-08-17T06:20:10.581Z,1.33
2022-08-17T06:22:44.910Z,1.27
2022-08-17T06:25:23.846Z,1.38
2022-08-17T06:27:56.163Z,1.40
2022-08-17T06:30:27.360Z,1.38
2022-08-17T06:32:59.883Z,1.38
2022-08-17T06:35:31.951Z,1.50
2022-08-17T06:38:17.301Z,1.50
2022-08-17T06:41:13.608Z,1.50
2022-08-17T06:43:57.251Z,1.35
2022-08-17T06:46:33.450Z,1.30
2022-08-17T06:49:15.745Z,1.30
2022-08-17T06:51:49.781Z,1.30
2022-08-17T06:54:32.858Z,1.50
2022-08-17T06:57:15.354Z,1.50
2022-08-17T06:59:57.625Z,1.90
2022-08-17T07:02:52.742Z,1.55
2022-08-17T07:05:24.578Z,1.38
2022-08-17T07:08:07.977Z,1.38
2022-08-17T07:10:41.641Z,1.65
2022-08-17T07:13:51.233Z,1.60
2022-08-17T07:16:26.101Z,1.52
2022-08-17T07:18:56.678Z,1.40
2022-08-17T07:21:41.012Z,1.70
2022-08-17T07:24:29.839Z,1.50
2022-08-17T07:27:09.542Z,1.60
2022-08-17T07:29:47.859Z,1.80
2022-08-17T07:32:19.291Z,1.70
2022-08-17T07:35:11.645Z,1.57
2022-08-17T07:37:41.896Z,1.75
2022-08-17T07:40:17.593Z,1.70
2022-08-17T07:43:18.758Z,1.80
2022-08-17T07:46:36.923Z,1.80
2022-08-17T07:49:05.311Z,1.80
2022-08-17T07:51:39.381Z,1.70
2022-08-17T07:54:15.981Z,1.70
2022-08-17T07:56:58.256Z,1.27
2022-08-17T07:59:54.890Z,1.40
2022-08-17T08:02:38.820Z,1.60
2022-08-17T08:05:49.276Z,1.50
2022-08-17T08:08:37.912Z,1.45
2022-08-17T08:11:12.334Z,1.60
2022-08-17T08:13:44.013Z,1.60
2022-08-17T08:16:17.314Z,1.45
2022-08-17T08:18:55.982Z,1.40
2022-08-17T08:21:49.552Z,1.70
2022-08-17T08:24:41.775Z,1.40
2022-08-17T08:27:21.234Z,1.30
2022-08-17T08:30:01.210Z,1.23
2022-08-17T08:32:50.281Z,1.20
2022-08-17T08:35:31.161Z,1.45
2022-08-17T08:38:28.177Z,1.20
2022-08-17T08:41:08.573Z,1.08
2022-08-17T08:43:55.114Z,1.00
2022-08-17T08:46:46.930Z,1.10
2022-08-17T08:49:59.446Z,0.95
2022-08-17T08:52:41.846Z,1.10
2022-08-17T08:55:45.684Z,0.95
2022-08-17T08:58:41.978Z,1.10
2022-08-17T09:01:23.625Z,1.20
2022-08-17T09:04:24.828Z,0.97
2022-08-17T09:06:58.183Z,1.15
2022-08-17T09:10:01.469Z,0.98
2022-08-17T09:12:41.930Z,0.90
2022-08-17T09:15:28.897Z,0.88
2022-08-17T09:18:58.917Z,0.90
2022-08-17T09:21:06.386Z,1.10
2022-08-17T09:23:36.598Z,1.08
2022-08-17T09:26:33.269Z,1.00
2022-08-17T09:29:07.658Z,1.00
2022-08-17T09:31:49.110Z,1.02
2022-08-17T09:34:29.600Z,1.00
2022-08-17T09:37:20.859Z,1.20
2022-08-17T09:40:18.618Z,1.05
2022-08-17T09:42:50.869Z,1.35
2022-08-17T09:45:51.630Z,1.30
2022-08-17T09:48:27.843Z,1.00
2022-08-17T09:51:36.873Z,1.30
2022-08-17T09:54:37.069Z,1.35
2022-08-17T09:57:11.535Z,1.10
2022-08-17T09:59:59.172Z,1.10
2022-08-17T10:02:53.817Z,1.23
2022-08-17T10:05:56.790Z,1.20
2022-08-17T10:08:30.296Z,1.77
2022-08-17T10:11:09.466Z,1.40
2022-08-17T10:14:24.137Z,1.45
2022-08-17T10:17:25.527Z,2.35
2022-08-17T10:20:07.060Z,2.20
2022-08-17T10:23:04.932Z,2.10
2022-08-17T10:26:14.728Z,2.47
2022-08-17T10:29:01.351Z,1.60
2022-08-17T10:31:42.737Z,1.60
2022-08-17T10:34:42.456Z,2.60
2022-08-17T10:37:40.838Z,1.80
2022-08-17T10:40:26.500Z,1.40
2022-08-17T10:43:00.095Z,1.60
2022-08-17T10:45:48.691Z,1.67
2022-08-17T10:48:38.827Z,1.42
2022-08-17T10:51:38.251Z,1.52
2022-08-17T10:54:07.796Z,1.60
2022-08-17T10:56:45.462Z,1.30
2022-08-17T10:59:35.524Z,1.52
2022-08-17T11:02:22.927Z,1.20
2022-08-17T11:05:07.361Z,1.48
2022-08-17T11:07:37.667Z,1.40
2022-08-17T11:10:19.829Z,2.20
2022-08-17T11:13:01.805Z,1.95
2022-08-17T11:15:52.470Z,1.90
2022-08-17T11:18:39.592Z,2.10
2022-08-17T11:21:25.716Z,1.92
2022-08-17T11:24:20.895Z,1.85
2022-08-17T11:27:26.774Z,1.70
2022-08-17T11:30:02.500Z,1.50
2022-08-17T11:32:54.641Z,1.60
2022-08-17T11:35:22.606Z,1.52
2022-08-17T11:38:08.692Z,1.50
2022-08-17T11:41:15.119Z,1.38
2022-08-17T11:44:13.040Z,1.27
2022-08-17T11:47:01.833Z,1.50
2022-08-17T11:50:12.787Z,1.55
2022-08-17T11:52:44.489Z,1.80
2022-08-17T11:55:35.765Z,1.35
2022-08-17T11:58:26.330Z,1.50
2022-08-17T12:01:06.090Z,1.38
2022-08-17T12:03:33.784Z,1.25
2022-08-17T12:06:19.824Z,1.38
2022-08-17T12:09:15.961Z,1.60
2022-08-17T12:12:12.037Z,1.50
2022-08-17T12:17:40.794Z,1.40
2022-08-17T12:20:19.797Z,1.30
2022-08-17T12:23:03.926Z,1.77
2022-08-17T12:26:09.967Z,1.70
2022-08-17T12:28:39.551Z,1.70
2022-08-17T12:31:13.539Z,1.27
2022-08-17T12:33:45.110Z,1.60
2022-08-17T12:36:19.488Z,1.70
2022-08-17T12:39:14.458Z,2.65
2022-08-17T12:44:22.066Z,1.50
2022-08-17T12:46:51.761Z,1.42
2022-08-17T12:49:31.920Z,1.33
2022-08-17T12:52:25.128Z,1.48
2022-08-17T12:54:57.083Z,1.40
2022-08-17T12:57:42.936Z,1.20
2022-08-17T13:00:30.672Z,1.30
2022-08-17T13:03:02.635Z,1.80
2022-08-17T13:05:37.940Z,1.40
2022-08-17T13:08:16.126Z,1.45
2022-08-17T13:10:53.631Z,1.38
2022-08-17T13:13:25.358Z,1.38
2022-08-17T13:15:58.896Z,1.48
2022-08-17T13:18:53.949Z,1.52
2022-08-17T13:21:24.070Z,1.73
2022-08-17T13:24:02.670Z,1.70
2022-08-17T13:26:36.031Z,1.83
2022-08-17T13:29:28.936Z,2.10
2022-08-17T13:32:19.906Z,1.90
2022-08-17T13:35:15.598Z,1.48
2022-08-17T13:38:01.621Z,2.00
2022-08-17T13:40:38.595Z,1.90
2022-08-17T13:43:06.166Z,1.60
2022-08-17T13:45:45.256Z,1.50
2022-08-17T13:48:25.214Z,1.75
2022-08-17T13:50:55.573Z,1.95
2022-08-17T13:53:40.542Z,1.63
2022-08-17T13:56:37.249Z,2.17
2022-08-17T13:59:17.165Z,1.60
2022-08-17T14:02:05.467Z,1.80
2022-08-17T14:04:33.815Z,1.88
2022-08-17T14:07:03.929Z,1.88
2022-08-17T14:10:06.716Z,2.00
2022-08-17T14:12:38.512Z,1.90
2022-08-17T14:15:07.327Z,1.88
2022-08-17T14:17:38.669Z,1.77
2022-08-17T14:20:12.160Z,1.77
2022-08-17T14:22:46.058Z,1.85
2022-08-17T14:25:29.624Z,1.75
2022-08-17T14:27:57.442Z,1.52
2022-08-17T14:30:29.894Z,1.60
2022-08-17T14:32:59.281Z,1.42
2022-08-17T14:35:28.384Z,1.38
2022-08-17T14:37:56.663Z,1.63
2022-08-17T14:40:25.327Z,1.67
2022-08-17T14:42:55.471Z,1.45
2022-08-17T14:45:31.838Z,1.60
2022-08-17T14:48:04.486Z,1.95
2022-08-17T14:50:35.583Z,1.55
2022-08-17T14:53:05.622Z,2.47
2022-08-17T14:55:33.848Z,2.10
2022-08-17T14:58:01.321Z,2.10
2022-08-17T15:00:29.008Z,2.20
2022-08-17T15:02:59.560Z,2.08
2022-08-17T15:05:31.825Z,2.30
2022-08-17T15:08:01.405Z,3.03
2022-08-17T15:10:30.334Z,2.40
2022-08-17T15:12:58.719Z,2.58
2022-08-17T15:15:26.333Z,2.40
2022-08-17T15:17:53.811Z,2.10
2022-08-17T15:20:25.274Z,2.00
2022-08-17T15:22:56.284Z,2.28
2022-08-17T15:25:27.785Z,2.10
2022-08-17T15:27:56.184Z,2.38
2022-08-17T15:30:24.756Z,2.30
2022-08-17T15:32:54.878Z,2.13
2022-08-17T15:35:27.908Z,2.17
2022-08-17T15:37:58.393Z,2.65
2022-08-17T15:40:25.967Z,2.83
2022-08-17T15:42:53.662Z,2.70
2022-08-17T15:45:25.072Z,2.50
2022-08-17T15:47:53.597Z,2.38
2022-08-17T15:50:21.299Z,2.67
2022-08-17T15:52:55.535Z,2.50
2022-08-17T15:55:24.229Z,2.58
2022-08-17T15:57:52.593Z,2.28
2022-08-17T16:00:21.306Z,2.78
2022-08-17T16:03:46.720Z,2.97
2022-08-17T16:05:36.507Z,2.72
2022-08-17T16:08:04.851Z,2.78
2022-08-17T16:10:35.698Z,2.85
2022-08-17T16:13:04.484Z,2.83
2022-08-17T16:15:32.501Z,3.00
2022-08-17T16:18:00.090Z,2.60
2022-08-17T16:20:28.064Z,2.85
2022-08-17T16:22:55.921Z,3.05
2022-08-17T16:25:38.427Z,2.58
2022-08-17T16:28:17.711Z,2.92
2022-08-17T16:30:45.688Z,3.40
2022-08-17T16:33:13.915Z,3.60
2022-08-17T16:35:42.394Z,3.00
2022-08-17T16:38:11.167Z,3.30
2022-08-17T16:40:38.748Z,2.85
2022-08-17T16:43:10.811Z,3.00
2022-08-17T16:45:40.995Z,3.00
2022-08-17T16:48:09.856Z,2.88
2022-08-17T16:50:37.768Z,3.20
2022-08-17T16:53:17.399Z,3.75
2022-08-17T16:55:47.010Z,3.20
2022-08-17T16:58:16.409Z,3.05
2022-08-17T17:00:45.478Z,3.30
2022-08-17T17:03:19.715Z,3.72
2022-08-17T17:06:16.002Z,3.80
2022-08-17T17:08:59.064Z,3.60
2022-08-17T17:11:36.655Z,2.90
2022-08-17T17:14:14.968Z,2.30
2022-08-17T17:16:52.824Z,2.30
2022-08-17T17:19:38.549Z,2.40
2022-08-17T17:22:49.461Z,2.38
2022-08-17T17:25:32.475Z,2.50
2022-08-17T17:31:11.617Z,3.00
2022-08-17T17:33:48.051Z,3.22
2022-08-17T17:36:27.236Z,3.15
2022-08-17T17:39:07.159Z,3.78
2022-08-17T17:41:47.637Z,3.80
2022-08-17T17:44:20.236Z,4.57
2022-08-17T17:46:53.607Z,4.43
2022-08-17T17:49:21.644Z,5.10
2022-08-17T17:52:24.544Z,5.20
2022-08-17T17:55:10.397Z,3.85
2022-08-17T17:57:54.827Z,3.90
2022-08-17T18:00:25.355Z,3.45
2022-08-17T18:03:03.559Z,3.15
2022-08-17T18:05:37.577Z,3.50
2022-08-17T18:08:14.197Z,4.10
2022-08-17T18:10:56.995Z,4.03
2022-08-17T18:13:53.731Z,3.47
2022-08-17T18:16:21.224Z,4.00
2022-08-17T18:18:51.049Z,3.58
2022-08-17T18:21:21.757Z,3.90
2022-08-17T18:23:59.152Z,3.83
2022-08-17T18:26:42.038Z,4.30
2022-08-17T18:29:21.701Z,3.65
2022-08-17T18:31:52.798Z,3.88
2022-08-17T18:34:51.725Z,3.13
2022-08-17T18:37:50.285Z,3.25
2022-08-17T18:40:18.489Z,3.80
2022-08-17T18:43:09.618Z,3.60
2022-08-17T18:45:42.758Z,3.72
2022-08-17T18:48:39.059Z,3.90
2022-08-17T18:51:42.141Z,3.90
2022-08-17T18:54:26.312Z,3.67
2022-08-17T18:59:45.338Z,3.75
2022-08-17T19:02:19.433Z,4.93
2022-08-17T19:05:09.277Z,4.00
2022-08-17T19:07:45.716Z,4.50
2022-08-17T19:10:24.657Z,4.00
2022-08-17T19:13:12.462Z,3.55
2022-08-17T19:16:15.851Z,3.50
2022-08-17T19:18:58.865Z,3.00
2022-08-17T19:21:40.576Z,2.80
2022-08-17T19:24:23.344Z,3.00
2022-08-17T19:26:59.153Z,2.97
2022-08-17T19:29:42.501Z,3.22
2022-08-17T19:32:12.147Z,3.22
2022-08-17T19:34:43.397Z,3.50
2022-08-17T19:37:39.261Z,4.07
2022-08-17T19:40:06.880Z,4.75
2022-08-17T19:42:47.823Z,4.63
2022-08-17T19:45:19.804Z,3.63
2022-08-17T19:48:10.683Z,3.78
2022-08-17T19:50:51.281Z,3.17
2022-08-17T19:54:05.930Z,3.10
2022-08-17T19:56:36.962Z,3.10
2022-08-17T19:59:23.854Z,3.65
2022-08-17T20:01:55.258Z,3.55
2022-08-17T20:04:32.469Z,4.10
2022-08-17T20:07:04.281Z,3.90
2022-08-17T20:09:38.550Z,4.18
2022-08-17T20:12:19.140Z,3.70
2022-08-17T20:14:53.944Z,3.88
2022-08-17T20:17:32.210Z,3.55
2022-08-17T20:20:27.758Z,3.50
2022-08-17T20:23:06.407Z,3.60
2022-08-17T20:26:23.575Z,3.33
2022-08-17T20:29:15.125Z,2.67
2022-08-17T20:31:49.245Z,3.05
2022-08-17T20:34:31.037Z,2.63
2022-08-17T20:37:13.737Z,2.70
2022-08-17T20:39:45.381Z,2.55
2022-08-17T20:42:15.624Z,2.42
2022-08-17T20:44:43.715Z,2.38
2022-08-17T20:47:32.748Z,2.22
2022-08-17T20:50:07.126Z,2.42
2022-08-17T20:52:52.506Z,2.05
2022-08-17T20:55:51.436Z,2.03
2022-08-17T20:58:23.471Z,1.80
2022-08-17T21:00:57.130Z,2.10
2022-08-17T21:03:24.755Z,1.67
2022-08-17T21:06:16.858Z,1.80
2022-08-17T21:08:59.121Z,1.80
2022-08-17T21:12:02.627Z,1.80
2022-08-17T21:14:42.530Z,1.67
2022-08-17T21:17:45.487Z,1.70
2022-08-17T21:20:38.938Z,1.80
2022-08-17T21:23:29.349Z,1.85
2022-08-17T21:26:28.061Z,1.60
2022-08-17T21:29:31.397Z,1.83
2022-08-17T21:32:00.564Z,1.60
2022-08-17T21:34:39.797Z,1.83
2022-08-17T21:37:19.220Z,1.80
2022-08-17T21:39:52.096Z,1.60
2022-08-17T21:42:35.623Z,1.75
2022-08-17T21:45:30.916Z,1.50
2022-08-17T21:48:19.902Z,1.63
2022-08-17T21:51:28.410Z,1.23
2022-08-17T21:54:03.486Z,1.50
2022-08-17T21:56:40.528Z,1.48
2022-08-17T21:59:29.227Z,1.42
2022-08-17T22:02:08.955Z,1.45
2022-08-17T22:04:39.645Z,1.20
2022-08-17T22:07:15.825Z,1.48
2022-08-17T22:09:45.179Z,1.40
2022-08-17T22:12:21.143Z,1.60
2022-08-17T22:14:57.590Z,1.50
2022-08-17T22:17:45.418Z,1.40
2022-08-17T22:20:17.868Z,1.60
2022-08-17T22:23:12.783Z,1.55
2022-08-17T22:25:57.298Z,1.67
2022-08-17T22:28:49.523Z,1.63
2022-08-17T22:31:28.911Z,1.73
2022-08-17T22:34:00.125Z,1.50
2022-08-17T22:36:36.473Z,2.50
2022-08-17T22:39:10.000Z,2.45
2022-08-17T22:41:52.810Z,2.30
2022-08-17T22:44:51.149Z,2.35
2022-08-17T22:47:19.224Z,2.30
2022-08-17T22:49:53.271Z,2.70
2022-08-17T22:53:02.408Z,3.20
2022-08-17T22:55:52.367Z,3.05
2022-08-17T22:58:42.501Z,3.33
2022-08-17T23:01:26.258Z,2.80
2022-08-17T23:03:57.242Z,2.40
2022-08-17T23:06:25.111Z,2.42
2022-08-17T23:08:55.172Z,2.55
2022-08-17T23:11:36.797Z,2.30
2022-08-17T23:14:16.598Z,2.50
2022-08-17T23:16:43.995Z,2.40
2022-08-17T23:19:15.570Z,2.70
2022-08-17T23:21:47.174Z,2.83
2022-08-17T23:24:20.401Z,2.60
2022-08-17T23:26:47.867Z,2.53
2022-08-17T23:29:15.417Z,2.47
2022-08-17T23:31:43.089Z,2.47
2022-08-17T23:34:13.243Z,2.42
2022-08-17T23:36:41.204Z,2.30
2022-08-17T23:39:08.689Z,2.60
2022-08-17T23:41:40.281Z,2.40
2022-08-17T23:44:07.829Z,2.35
2022-08-17T23:46:35.808Z,2.20
2022-08-17T23:49:03.530Z,2.17
2022-08-17T23:51:38.468Z,2.38
2022-08-17T23:54:12.857Z,2.20
2022-08-17T23:56:46.910Z,2.60
2022-08-17T23:59:16.091Z,2.05
